TAF LFPO
LFPO 261700Z 2618/2724 23010KT 9999 BKN014 TEMPO 2618/2621 24015G25KT TEMPO 2618/2623 4000 -SHRA BKN010 BKN025TCU PROB40 TEMPO 2618/2623 2500 SHRA BKN020CB BECMG 2623/2701 CAVOK TEMPO 2709/2718 27012G25KT 4000 -SHRASN BKN010 BKN015TCU PROB40 TEMPO 2708/2712 1500 -SN BKN008 PROB40 TEMPO 2712/2715 2500 SHRAGS BKN010CB TEMPO 2621/2624 4000 -RASN BKN010 PROB40 TEMPO 2622/2624 2500 -SN BKN006=
METAR LFPO
LFPO 270730Z 21012KT 6000 -SN BKN009 OVC020 02/01 Q0987 TEMPO 3000 SN BKN010=
LFPO 270700Z 22010KT 9999 SCT013 SCT040 BKN060 02/01 Q0987 TEMPO 3000 SN BKN010=
LFPO 270630Z 21010KT 9999 FEW013 SCT030 BKN120 02/01 Q0987 TEMPO 3000 SN BKN010=
LFPO 270600Z 22010KT 9999 FEW036 BKN140 02/01 Q0987 TEMPO 3000 SN BKN010=
LFPO 270530Z 21010KT 9999 FEW044 02/01 Q0988 TEMPO 3000 SN BKN010=
WC LFPO
WS LFPO
WV LFPO